Time;durP1;ratioP1;P1;durP2;ratioP2;P2;SDS_P1;SDS_P2;PMS_P1;PMS_P2;Temp;Humidity;BMP_temperature;BMP_pressure;BME280_temperature;BME280_humidity;BME280_pressure;Samples;Min_cycle;Max_cycle;Signal;HPM_P1;HPM_P2
2021/12/12 00:02:44;;;;;;;37.13;21.83;;;4.80;99.90;;;;;;5015343;28;19917;-77
2021/12/12 00:05:11;;;;;;;40.00;22.13;;;4.60;99.90;;;;;;5031272;28;20167;-77
2021/12/12 00:07:37;;;;;;;36.35;21.13;;;4.50;99.90;;;;;;5017619;28;20044;-76
2021/12/12 00:10:12;;;;;;;35.63;22.05;;;4.60;99.90;;;;;;5043941;28;20036;-77
2021/12/12 00:12:43;;;;;;;41.13;22.88;;;4.60;99.90;;;;;;5035483;28;20402;-76
2021/12/12 00:15:12;;;;;;;43.72;24.35;;;4.50;99.90;;;;;;5009173;28;20491;-74
2021/12/12 00:17:39;;;;;;;38.22;22.67;;;5.20;99.90;;;;;;5005265;28;20041;-76
2021/12/12 00:20:07;;;;;;;39.30;22.35;;;4.40;99.90;;;;;;5001044;28;20037;-77
2021/12/12 00:22:33;;;;;;;40.88;23.30;;;4.80;99.90;;;;;;5018528;28;20120;-77
2021/12/12 00:25:00;;;;;;;34.10;22.05;;;4.40;99.90;;;;;;5033755;28;20136;-75
2021/12/12 00:27:27;;;;;;;33.70;21.67;;;4.70;99.90;;;;;;5025853;28;20099;-77
2021/12/12 00:30:01;;;;;;;40.65;23.45;;;4.60;99.90;;;;;;5031217;28;20137;-77
2021/12/12 00:32:27;;;;;;;33.75;21.88;;;4.40;99.90;;;;;;5031140;28;20052;-77
2021/12/12 00:34:58;;;;;;;35.65;22.00;;;4.80;99.90;;;;;;5014672;28;20037;-77
2021/12/12 00:37:24;;;;;;;35.40;21.60;;;4.50;99.90;;;;;;5014932;28;20038;-78
2021/12/12 00:39:56;;;;;;;31.10;20.40;;;4.50;99.90;;;;;;5013961;28;20046;-77
2021/12/12 00:42:25;;;;;;;34.20;20.05;;;4.50;99.90;;;;;;5014934;28;20040;-76
2021/12/12 00:44:58;;;;;;;42.30;23.23;;;4.60;99.90;;;;;;5031140;28;20041;-76
2021/12/12 00:47:25;;;;;;;34.17;21.60;;;4.50;99.90;;;;;;4997868;28;20121;-77
2021/12/12 00:49:52;;;;;;;37.10;23.80;;;5.60;99.90;;;;;;5044511;28;20402;-77
2021/12/12 00:52:19;;;;;;;36.90;21.45;;;4.60;99.90;;;;;;5014013;28;20056;-77
2021/12/12 00:54:46;;;;;;;37.10;22.00;;;4.60;99.90;;;;;;5015030;28;20038;-77
2021/12/12 00:57:15;;;;;;;34.20;21.13;;;4.60;99.90;;;;;;5016273;28;20066;-76
2021/12/12 00:59:41;;;;;;;35.13;21.75;;;4.60;99.90;;;;;;5034257;28;20127;-76
2021/12/12 01:02:09;;;;;;;40.10;23.90;;;4.60;99.90;;;;;;5050975;28;20086;-75
2021/12/12 01:04:45;;;;;;;44.28;23.15;;;4.60;99.90;;;;;;5017546;28;20057;-76
2021/12/12 01:07:15;;;;;;;40.08;23.45;;;4.60;99.90;;;;;;5033633;28;20045;-76
2021/12/12 01:10:02;;;;;;;34.25;23.27;;;4.60;99.90;;;;;;5017870;28;20071;-76
2021/12/12 01:12:31;;;;;;;41.97;24.45;;;4.70;99.90;;;;;;5017047;28;20048;-77
2021/12/12 01:15:15;;;;;;;37.13;23.73;;;4.90;99.90;;;;;;5017051;28;20041;-76
2021/12/12 01:17:44;;;;;;;36.67;22.27;;;4.70;99.90;;;;;;5034175;28;20045;-78
2021/12/12 01:20:38;;;;;;;40.35;23.65;;;4.60;99.90;;;;;;5026250;28;20030;-77
2021/12/12 01:23:13;;;;;;;44.70;25.25;;;4.70;99.90;;;;;;4997928;28;20091;-78
2021/12/12 01:25:44;;;;;;;44.72;23.65;;;4.70;99.90;;;;;;5026257;28;20087;-78
2021/12/12 01:28:16;;;;;;;35.17;23.13;;;4.70;99.90;;;;;;5033383;28;20045;-76
2021/12/12 01:30:42;;;;;;;36.97;24.38;;;4.70;99.90;;;;;;5034144;28;20048;-77
2021/12/12 01:33:09;;;;;;;41.60;23.48;;;4.70;99.90;;;;;;5030674;28;20056;-77
2021/12/12 01:35:39;;;;;;;38.75;24.23;;;5.10;99.90;;;;;;5014049;28;20052;-76
2021/12/12 01:40:53;;;;;;;46.58;24.52;;;4.70;99.90;;;;;;5015448;28;20085;-77
2021/12/12 01:43:38;;;;;;;42.22;24.10;;;4.70;99.90;;;;;;5013875;28;20045;-77
2021/12/12 01:46:18;;;;;;;38.75;23.85;;;4.70;99.90;;;;;;5014068;28;20053;-76
2021/12/12 01:48:52;;;;;;;43.25;27.02;;;4.80;99.90;;;;;;5022780;28;20069;-77
2021/12/12 01:51:19;;;;;;;42.67;24.38;;;4.70;99.90;;;;;;5017644;28;20076;-77
2021/12/12 01:53:49;;;;;;;45.47;25.65;;;4.80;99.90;;;;;;5027912;28;20045;-77
2021/12/12 01:56:32;;;;;;;44.85;26.17;;;4.80;99.90;;;;;;5033521;28;20048;-77
2021/12/12 01:59:05;;;;;;;42.72;25.45;;;5.80;99.90;;;;;;5033430;28;20470;-77
2021/12/12 02:01:45;;;;;;;40.42;25.40;;;4.80;99.90;;;;;;5033978;28;20554;-77
2021/12/12 02:04:15;;;;;;;37.03;23.50;;;4.80;99.90;;;;;;5033119;28;20076;-77
2021/12/12 02:06:47;;;;;;;46.30;25.00;;;4.80;99.90;;;;;;5017191;28;20076;-76
2021/12/12 02:09:13;;;;;;;41.30;24.42;;;4.80;99.90;;;;;;5033228;28;20080;-76
2021/12/12 02:11:42;;;;;;;41.53;25.58;;;4.80;99.90;;;;;;5033371;28;20104;-75
2021/12/12 02:14:12;;;;;;;44.78;25.42;;;7.20;99.90;;;;;;5018742;28;20489;-75
2021/12/12 02:16:41;;;;;;;42.70;23.95;;;4.90;99.90;;;;;;5036977;28;20138;-75
2021/12/12 02:19:08;;;;;;;50.38;27.30;;;5.50;99.90;;;;;;5034795;28;20080;-75
2021/12/12 02:35:07;;;;;;;46.75;25.38;;;4.90;99.90;;;;;;5034307;28;20140;-75
2021/12/12 02:35:49;;;;;;;39.58;23.15;;;4.90;99.90;;;;;;5047251;28;20046;-76
2021/12/12 02:38:24;;;;;;;43.58;25.45;;;6.10;99.90;;;;;;5016697;28;20046;-75
2021/12/12 02:40:54;;;;;;;40.28;24.10;;;4.90;99.90;;;;;;5017669;28;20038;-75
2021/12/12 02:43:23;;;;;;;39.25;23.60;;;4.90;99.90;;;;;;5021679;28;20045;-75
2021/12/12 02:45:53;;;;;;;40.55;25.67;;;5.00;99.90;;;;;;5016389;28;20041;-75
2021/12/12 02:48:20;;;;;;;42.03;24.83;;;5.00;99.90;;;;;;5016541;28;20046;-75
2021/12/12 02:50:49;;;;;;;40.95;23.48;;;6.80;99.90;;;;;;5016744;28;20045;-75
2021/12/12 02:53:22;;;;;;;41.42;24.35;;;5.00;99.90;;;;;;5000228;28;20402;-75
2021/12/12 02:55:57;;;;;;;44.83;23.33;;;5.00;99.90;;;;;;5016621;28;20038;-75
2021/12/12 02:58:25;;;;;;;41.25;23.15;;;5.00;99.90;;;;;;5017050;28;20050;-75
2021/12/12 03:01:24;;;;;;;47.88;25.95;;;5.00;99.90;;;;;;5015701;28;20081;-77
2021/12/12 03:03:51;;;;;;;45.33;25.15;;;5.10;99.90;;;;;;4997342;28;20049;-75
2021/12/12 03:06:22;;;;;;;43.63;25.00;;;5.10;99.90;;;;;;5035760;28;20052;-75
2021/12/12 03:08:50;;;;;;;40.97;24.40;;;5.10;99.90;;;;;;5019573;28;20088;-75
2021/12/12 03:11:17;;;;;;;42.15;23.98;;;5.50;99.90;;;;;;5021313;28;20048;-75
2021/12/12 03:13:43;;;;;;;33.85;21.58;;;6.20;99.90;;;;;;5032526;28;20051;-75
2021/12/12 03:16:10;;;;;;;39.05;23.90;;;5.50;99.90;;;;;;5048553;28;20040;-75
2021/12/12 03:18:40;;;;;;;38.88;23.90;;;5.10;99.90;;;;;;5035948;28;20055;-74
2021/12/12 03:21:15;;;;;;;37.80;22.25;;;5.20;99.90;;;;;;5034958;28;20435;-74
2021/12/12 03:23:45;;;;;;;38.63;22.70;;;5.20;99.90;;;;;;5019356;28;20041;-75
2021/12/12 03:26:13;;;;;;;36.53;22.85;;;5.10;99.90;;;;;;5002693;28;20406;-75
2021/12/12 03:28:42;;;;;;;35.70;21.65;;;5.20;99.90;;;;;;5015703;28;20054;-75
2021/12/12 03:31:15;;;;;;;34.50;20.83;;;5.20;99.90;;;;;;5020042;28;20082;-74
2021/12/12 03:33:41;;;;;;;35.63;22.38;;;5.40;99.90;;;;;;5036323;28;20063;-75
2021/12/12 03:36:11;;;;;;;32.10;21.15;;;5.20;99.90;;;;;;5034732;28;20166;-75
2021/12/12 03:38:41;;;;;;;35.65;19.65;;;5.20;99.90;;;;;;5009058;28;20398;-74
2021/12/12 03:41:11;;;;;;;29.30;19.55;;;5.10;99.90;;;;;;5014823;28;20548;-76
2021/12/12 03:43:37;;;;;;;27.48;18.52;;;5.30;99.90;;;;;;5016196;28;20049;-74
2021/12/12 03:46:10;;;;;;;26.73;17.50;;;5.30;99.90;;;;;;5039354;28;20116;-74
2021/12/12 03:48:38;;;;;;;29.00;18.83;;;5.40;99.90;;;;;;5034991;28;20048;-75
2021/12/12 03:51:08;;;;;;;27.38;18.05;;;5.40;99.90;;;;;;5034700;28;20059;-74
2021/12/12 03:53:36;;;;;;;26.33;17.58;;;5.50;99.90;;;;;;5035652;28;20347;-75
2021/12/12 03:56:03;;;;;;;23.85;16.95;;;7.20;99.90;;;;;;5034321;28;20045;-75
2021/12/12 03:58:28;;;;;;;27.52;16.90;;;5.50;99.90;;;;;;5035426;28;20128;-75
2021/12/12 04:00:57;;;;;;;26.42;17.35;;;5.40;99.90;;;;;;5034171;28;20119;-75
2021/12/12 04:03:23;;;;;;;26.73;16.77;;;5.50;99.90;;;;;;5034560;28;20127;-75
2021/12/12 04:05:56;;;;;;;26.45;17.15;;;5.50;99.90;;;;;;5034912;28;20049;-76
2021/12/12 04:08:32;;;;;;;26.52;17.25;;;5.50;99.90;;;;;;5027025;28;20128;-75
2021/12/12 04:10:58;;;;;;;20.92;15.30;;;5.50;99.90;;;;;;5014292;28;20426;-75
2021/12/12 04:13:24;;;;;;;21.05;13.98;;;5.50;99.90;;;;;;5015367;28;20045;-75
2021/12/12 04:15:51;;;;;;;22.98;15.35;;;5.50;99.90;;;;;;5031573;28;20048;-75
2021/12/12 04:18:27;;;;;;;22.40;14.50;;;7.00;99.90;;;;;;5014642;28;20060;-75
2021/12/12 04:20:55;;;;;;;21.60;13.30;;;5.60;99.90;;;;;;5031519;28;20037;-76
2021/12/12 04:23:24;;;;;;;19.73;12.90;;;6.50;99.90;;;;;;5046676;28;20046;-76
2021/12/12 04:25:51;;;;;;;28.75;16.27;;;5.70;99.90;;;;;;5014877;28;20057;-76
2021/12/12 04:28:18;;;;;;;24.00;15.07;;;5.70;99.90;;;;;;4998282;28;20506;-75
2021/12/12 04:30:44;;;;;;;20.70;14.02;;;5.70;99.90;;;;;;5017449;28;20044;-76
2021/12/12 04:33:10;;;;;;;22.27;13.52;;;5.70;99.90;;;;;;5034342;28;20091;-77
2021/12/12 04:35:36;;;;;;;22.65;14.52;;;5.70;99.90;;;;;;5032449;28;20033;-75
2021/12/12 04:38:04;;;;;;;21.13;14.20;;;5.70;99.90;;;;;;5020923;28;20037;-76
2021/12/12 04:40:32;;;;;;;18.60;13.45;;;5.70;99.90;;;;;;5034697;28;20049;-77
2021/12/12 04:42:59;;;;;;;20.95;14.00;;;5.70;99.90;;;;;;5034185;28;20396;-76
2021/12/12 04:46:04;;;;;;;17.02;12.93;;;5.70;99.90;;;;;;4998583;28;20200;-76
2021/12/12 04:51:27;;;;;;;19.05;14.07;;;5.70;99.90;;;;;;5014842;28;20386;-77
2021/12/12 04:53:59;;;;;;;19.50;13.13;;;5.70;99.90;;;;;;5014893;28;20041;-77
2021/12/12 04:57:03;;;;;;;19.90;12.98;;;5.70;99.90;;;;;;5015872;28;20068;-77
2021/12/12 04:59:42;;;;;;;19.23;14.30;;;5.80;99.90;;;;;;4997855;28;20045;-76
2021/12/12 05:02:11;;;;;;;17.77;13.70;;;5.80;99.90;;;;;;5014412;28;20045;-76
2021/12/12 05:04:41;;;;;;;19.05;13.68;;;5.80;99.90;;;;;;5014611;28;20045;-76
2021/12/12 05:07:10;;;;;;;21.05;14.35;;;5.80;99.90;;;;;;5035237;28;20049;-76
2021/12/12 05:09:38;;;;;;;22.77;14.48;;;5.80;99.90;;;;;;5014728;28;20045;-76
2021/12/12 05:12:32;;;;;;;21.48;14.25;;;5.80;99.90;;;;;;5014265;28;20045;-76
2021/12/12 05:15:04;;;;;;;23.48;14.52;;;5.90;99.90;;;;;;5030493;28;20402;-75
2021/12/12 05:17:38;;;;;;;18.83;13.95;;;5.80;99.90;;;;;;4998123;28;20048;-77
2021/12/12 05:20:10;;;;;;;19.97;14.57;;;5.80;99.90;;;;;;4997071;28;20050;-76
2021/12/12 05:22:47;;;;;;;27.00;15.25;;;5.80;99.90;;;;;;5029427;28;20429;-76
2021/12/12 05:25:20;;;;;;;26.45;16.15;;;5.80;99.90;;;;;;5033920;28;20049;-77
2021/12/12 05:27:50;;;;;;;24.15;15.00;;;5.80;99.90;;;;;;5033207;28;20501;-77
2021/12/12 05:30:20;;;;;;;23.38;16.42;;;5.90;99.90;;;;;;5030931;28;20044;-76
2021/12/12 05:32:48;;;;;;;24.48;16.73;;;5.90;99.90;;;;;;5032015;28;20045;-75
2021/12/12 05:35:16;;;;;;;24.70;15.77;;;5.90;99.90;;;;;;5029154;28;20465;-76
2021/12/12 05:37:45;;;;;;;22.98;15.90;;;5.90;99.90;;;;;;5034039;28;20037;-76
2021/12/12 05:40:12;;;;;;;23.63;16.27;;;5.90;99.90;;;;;;5033846;28;20045;-76
2021/12/12 05:42:38;;;;;;;25.63;16.40;;;5.90;99.90;;;;;;5032943;28;20047;-77
2021/12/12 05:45:09;;;;;;;28.33;16.92;;;5.90;99.90;;;;;;5033379;28;20098;-77
2021/12/12 05:47:36;;;;;;;20.05;15.13;;;6.00;99.90;;;;;;5033366;28;20493;-77
2021/12/12 05:50:04;;;;;;;23.48;15.90;;;7.50;99.90;;;;;;5036244;28;20123;-76
2021/12/12 05:52:30;;;;;;;23.88;16.23;;;6.00;99.90;;;;;;5021602;28;20040;-77
2021/12/12 05:54:56;;;;;;;21.70;15.77;;;7.80;99.90;;;;;;5037223;28;20152;-77
2021/12/12 05:57:26;;;;;;;22.75;15.70;;;6.00;99.90;;;;;;5032351;28;20086;-76
2021/12/12 05:59:54;;;;;;;20.98;15.25;;;6.00;99.90;;;;;;5037638;28;20048;-76
2021/12/12 06:02:21;;;;;;;23.48;16.38;;;6.00;99.90;;;;;;5036375;28;20102;-75
2021/12/12 06:04:47;;;;;;;26.60;18.10;;;6.00;99.90;;;;;;5037310;28;20037;-77
2021/12/12 06:07:19;;;;;;;23.98;17.50;;;7.40;99.90;;;;;;5020201;28;20041;-76
2021/12/12 06:09:46;;;;;;;25.13;16.92;;;6.10;99.90;;;;;;5036700;28;20044;-75
2021/12/12 06:12:12;;;;;;;23.20;15.05;;;6.10;99.90;;;;;;5037362;28;20443;-75
2021/12/12 06:14:38;;;;;;;24.75;17.60;;;6.10;99.90;;;;;;5055478;28;20049;-77
2021/12/12 06:17:09;;;;;;;24.92;17.58;;;6.10;99.90;;;;;;5016692;28;20083;-75
2021/12/12 06:19:35;;;;;;;28.75;17.70;;;6.20;99.90;;;;;;5017178;28;20502;-75
2021/12/12 06:22:02;;;;;;;29.77;18.65;;;6.20;99.90;;;;;;5017658;28;20037;-79
2021/12/12 06:24:31;;;;;;;30.08;18.77;;;6.20;99.90;;;;;;5017490;28;20072;-81
2021/12/12 06:27:05;;;;;;;23.88;17.42;;;6.20;99.90;;;;;;5033584;28;20049;-83
2021/12/12 06:29:31;;;;;;;27.25;17.58;;;6.30;99.90;;;;;;5015491;28;20048;-78
2021/12/12 06:31:57;;;;;;;27.65;17.40;;;6.30;99.90;;;;;;5020645;28;20036;-76
2021/12/12 06:34:23;;;;;;;27.17;17.27;;;6.30;99.90;;;;;;5037351;28;20076;-77
2021/12/12 06:36:51;;;;;;;27.92;17.80;;;6.40;99.90;;;;;;5036475;28;20040;-75
2021/12/12 06:39:17;;;;;;;26.17;18.33;;;6.30;99.90;;;;;;5013678;28;20042;-79
2021/12/12 06:41:43;;;;;;;26.65;17.17;;;7.90;99.90;;;;;;5046277;28;20037;-78
2021/12/12 06:44:10;;;;;;;31.63;20.30;;;6.40;99.90;;;;;;5036354;28;20045;-79
2021/12/12 06:46:39;;;;;;;25.33;17.58;;;6.40;99.90;;;;;;5020227;28;20470;-83
2021/12/12 06:49:07;;;;;;;32.22;19.92;;;6.40;99.90;;;;;;5036267;28;20048;-81
2021/12/12 06:51:36;;;;;;;27.38;18.23;;;6.40;99.90;;;;;;5037463;28;20041;-79
2021/12/12 06:54:03;;;;;;;31.13;20.27;;;6.50;99.90;;;;;;5034451;28;20084;-77
2021/12/12 06:56:30;;;;;;;32.80;19.42;;;6.50;99.90;;;;;;5024921;28;20042;-76
2021/12/12 06:58:57;;;;;;;30.05;19.30;;;8.60;99.90;;;;;;5034203;28;20057;-79
2021/12/12 07:01:28;;;;;;;36.17;20.10;;;6.50;99.90;;;;;;5015635;28;20466;-79
2021/12/12 07:03:55;;;;;;;34.20;20.65;;;6.50;99.90;;;;;;5016814;28;20041;-78
2021/12/12 07:06:23;;;;;;;29.58;19.45;;;6.50;99.90;;;;;;5017026;28;20087;-77
2021/12/12 07:08:50;;;;;;;41.95;20.65;;;9.10;99.90;;;;;;5017197;28;20098;-77
2021/12/12 07:11:17;;;;;;;40.22;22.48;;;6.50;99.90;;;;;;5016767;28;20049;-78
2021/12/12 07:13:46;;;;;;;41.65;22.15;;;8.70;99.90;;;;;;5040105;28;20390;-78
2021/12/12 07:16:12;;;;;;;35.25;21.45;;;6.50;99.90;;;;;;5036563;28;20489;-77
2021/12/12 07:18:38;;;;;;;37.70;19.92;;;6.60;99.90;;;;;;5019875;28;20106;-78
2021/12/12 07:21:07;;;;;;;47.63;25.58;;;6.50;99.90;;;;;;5036331;28;20485;-77
2021/12/12 07:23:34;;;;;;;38.75;22.67;;;6.50;99.90;;;;;;5036553;28;20123;-77
2021/12/12 07:26:02;;;;;;;45.95;24.02;;;6.60;99.90;;;;;;5019013;28;20567;-77
2021/12/12 07:28:30;;;;;;;42.13;21.70;;;6.50;99.90;;;;;;5036100;28;20080;-77
2021/12/12 07:31:06;;;;;;;39.58;21.92;;;6.50;99.90;;;;;;5035750;28;20119;-77
2021/12/12 07:33:32;;;;;;;43.00;23.83;;;6.60;99.90;;;;;;5033520;28;20048;-76
2021/12/12 07:36:00;;;;;;;46.03;24.70;;;7.10;99.90;;;;;;5015854;28;20037;-77
2021/12/12 07:38:27;;;;;;;41.42;21.92;;;8.20;99.90;;;;;;5016197;28;20045;-77
2021/12/12 07:40:53;;;;;;;44.17;23.30;;;6.50;99.90;;;;;;5022122;28;20044;-77
2021/12/12 07:43:20;;;;;;;50.47;27.02;;;6.50;99.90;;;;;;5035374;28;20084;-77
2021/12/12 07:45:47;;;;;;;48.72;24.60;;;6.50;99.90;;;;;;5019386;28;20414;-78
2021/12/12 07:48:13;;;;;;;45.83;23.75;;;7.80;99.90;;;;;;5035604;28;20124;-77
2021/12/12 07:50:41;;;;;;;48.63;25.65;;;6.50;99.90;;;;;;5036076;28;20086;-78
2021/12/12 07:53:08;;;;;;;46.08;24.45;;;6.50;99.90;;;;;;5035681;28;20066;-78
2021/12/12 07:55:34;;;;;;;54.33;26.90;;;6.60;99.90;;;;;;5036064;28;20091;-78
2021/12/12 07:58:05;;;;;;;54.75;25.80;;;6.50;99.90;;;;;;5031647;28;20083;-76
2021/12/12 08:00:37;;;;;;;55.55;29.10;;;6.60;99.90;;;;;;5032281;28;20049;-85
2021/12/12 08:03:04;;;;;;;51.80;26.13;;;6.60;99.90;;;;;;5031648;28;20053;-82
2021/12/12 08:05:31;;;;;;;58.30;26.40;;;6.60;99.90;;;;;;5006295;28;20105;-83
2021/12/12 08:08:05;;;;;;;59.25;28.00;;;7.00;99.90;;;;;;5034885;28;20045;-87
2021/12/12 08:10:32;;;;;;;61.22;29.92;;;6.60;99.90;;;;;;5013550;28;20099;-75
2021/12/12 08:12:58;;;;;;;57.20;29.25;;;6.60;99.90;;;;;;5024501;28;20033;-82
2021/12/12 08:15:26;;;;;;;62.15;29.10;;;6.70;99.90;;;;;;5031402;28;20049;-80
2021/12/12 08:17:52;;;;;;;55.88;30.50;;;6.60;99.90;;;;;;5015278;28;20045;-76
2021/12/12 08:20:18;;;;;;;57.08;29.67;;;6.70;99.90;;;;;;4998785;28;20053;-81
2021/12/12 08:22:47;;;;;;;61.17;29.77;;;6.70;99.90;;;;;;5016314;28;20433;-73
2021/12/12 08:25:16;;;;;;;64.22;31.60;;;6.70;99.90;;;;;;5052105;28;20052;-79
2021/12/12 08:27:43;;;;;;;68.18;31.52;;;6.70;99.90;;;;;;5015935;28;20444;-73
2021/12/12 08:30:11;;;;;;;58.30;29.00;;;6.70;99.90;;;;;;5017275;28;20037;-80
2021/12/12 08:32:37;;;;;;;61.83;30.40;;;6.80;99.90;;;;;;5029156;28;20049;-76
2021/12/12 08:35:06;;;;;;;54.15;27.10;;;6.70;99.90;;;;;;5043727;28;20086;-79
2021/12/12 08:37:32;;;;;;;66.90;30.42;;;6.80;99.90;;;;;;5037886;28;20044;-85
2021/12/12 08:39:58;;;;;;;65.18;29.95;;;6.80;99.90;;;;;;5036556;28;20041;-80
2021/12/12 08:42:26;;;;;;;64.53;30.17;;;7.00;99.90;;;;;;5032688;28;20051;-85
2021/12/12 08:44:55;;;;;;;93.47;36.22;;;6.80;99.90;;;;;;5017451;28;20044;-85
2021/12/12 08:47:21;;;;;;;71.13;32.78;;;6.90;99.90;;;;;;5016553;28;20050;-76
2021/12/12 08:49:48;;;;;;;67.63;32.70;;;6.90;99.90;;;;;;5033362;28;20120;-83
2021/12/12 08:52:18;;;;;;;67.85;34.88;;;6.90;99.90;;;;;;5017679;28;20037;-78
2021/12/12 08:54:48;;;;;;;68.65;33.15;;;6.90;99.90;;;;;;5034022;28;20495;-85
2021/12/12 08:57:32;;;;;;;70.15;31.70;;;7.00;99.90;;;;;;5011154;28;20109;-88
2021/12/12 09:00:00;;;;;;;77.90;35.70;;;7.00;99.90;;;;;;4997679;28;20044;-85
2021/12/12 09:02:26;;;;;;;74.78;36.22;;;7.00;99.90;;;;;;4999884;28;20139;-89
2021/12/12 09:04:55;;;;;;;78.15;35.08;;;8.10;99.90;;;;;;4999641;28;20077;-88
2021/12/12 09:07:35;;;;;;;84.97;36.47;;;7.00;99.90;;;;;;4999039;28;20054;-77
2021/12/12 09:10:52;;;;;;;94.18;38.70;;;7.00;99.90;;;;;;4998390;28;20045;-87
2021/12/12 09:13:20;;;;;;;;;;;7.10;99.90;;;;;;4976604;28;20095;-87
2021/12/12 09:16:11;;;;;;;93.47;38.67;;;7.00;99.90;;;;;;5014346;28;19963;-85
2021/12/12 09:18:59;;;;;;;90.35;36.92;;;7.00;99.90;;;;;;4987190;28;20593;-82
2021/12/12 09:21:51;;;;;;;88.55;37.30;;;7.00;99.90;;;;;;5013746;28;20409;-78
2021/12/12 09:24:44;;;;;;;107.63;44.17;;;7.10;99.90;;;;;;4990227;28;20448;-71
2021/12/12 09:27:32;;;;;;;102.97;40.70;;;7.10;99.90;;;;;;5028807;28;20453;-80
2021/12/12 09:30:05;;;;;;;84.07;35.60;;;7.10;99.90;;;;;;5018199;28;20046;-78
2021/12/12 09:32:44;;;;;;;84.60;38.65;;;7.10;99.90;;;;;;5018377;28;20073;-82
2021/12/12 09:35:39;;;;;;;90.22;38.78;;;7.10;99.90;;;;;;5017456;28;20049;-83
2021/12/12 09:38:11;;;;;;;108.40;42.10;;;7.20;99.90;;;;;;5001153;28;20048;-81
2021/12/12 09:41:04;;;;;;;119.35;42.90;;;9.30;99.90;;;;;;5018124;28;20060;-86
2021/12/12 09:47:28;;;;;;;122.10;45.95;;;7.20;99.90;;;;;;5037684;28;20052;-86
2021/12/12 09:53:32;;;;;;;104.13;42.22;;;7.20;99.90;;;;;;5017206;28;20085;-75
2021/12/12 09:56:23;;;;;;;134.52;49.15;;;7.20;99.90;;;;;;5015348;28;20045;-82
2021/12/12 09:58:58;;;;;;;107.07;42.63;;;7.30;99.90;;;;;;5017542;28;20045;-79
2021/12/12 10:01:35;;;;;;;96.50;41.72;;;7.30;99.90;;;;;;5015703;28;20052;-72
2021/12/12 10:04:29;;;;;;;89.68;37.45;;;8.50;99.90;;;;;;5016286;28;20060;-83
2021/12/12 10:07:10;;;;;;;125.90;49.03;;;7.30;99.90;;;;;;4999138;28;20049;-83
2021/12/12 10:09:57;;;;;;;111.72;44.47;;;7.30;99.90;;;;;;5017693;28;20049;-85
2021/12/12 10:12:28;;;;;;;139.30;50.42;;;7.40;99.90;;;;;;5019911;28;20052;-82
2021/12/12 10:15:19;;;;;;;112.72;44.33;;;7.40;99.90;;;;;;5033610;28;20045;-82
2021/12/12 10:18:06;;;;;;;109.50;43.70;;;7.40;99.90;;;;;;5017438;28;20033;-86
2021/12/12 10:21:04;;;;;;;104.28;39.97;;;7.40;99.90;;;;;;5018358;28;20081;-82
2021/12/12 10:23:47;;;;;;;132.65;49.13;;;7.50;99.90;;;;;;5006950;28;20402;-83
2021/12/12 10:26:20;;;;;;;130.32;49.58;;;7.50;99.90;;;;;;5015489;28;20060;-76
2021/12/12 10:28:55;;;;;;;96.88;41.08;;;7.50;99.90;;;;;;5033011;28;20040;-79
2021/12/12 10:31:32;;;;;;;111.30;44.42;;;8.50;99.90;;;;;;5055787;28;20124;-80
2021/12/12 10:34:40;;;;;;;104.68;41.88;;;7.50;99.90;;;;;;5054936;28;20421;-78
2021/12/12 10:37:23;;;;;;;101.13;40.55;;;7.60;99.90;;;;;;5041203;28;20053;-78
2021/12/12 10:40:14;;;;;;;100.50;40.75;;;7.50;99.90;;;;;;5055486;28;20148;-77
2021/12/12 10:42:48;;;;;;;134.30;47.15;;;7.60;99.90;;;;;;5052582;28;20084;-77
2021/12/12 10:45:28;;;;;;;135.20;49.67;;;10.70;99.90;;;;;;5034486;28;20052;-75
2021/12/12 10:48:00;;;;;;;92.32;39.70;;;7.60;99.90;;;;;;5035717;28;20040;-78
2021/12/12 10:50:43;;;;;;;115.70;45.00;;;7.70;99.90;;;;;;5034535;28;20501;-78
2021/12/12 10:53:37;;;;;;;95.93;39.88;;;7.70;99.90;;;;;;5023673;28;20041;-77
2021/12/12 10:56:34;;;;;;;90.60;38.13;;;7.70;99.90;;;;;;5028744;28;20045;-77
2021/12/12 10:59:04;;;;;;;91.40;38.08;;;7.80;99.90;;;;;;5024624;28;20045;-79
2021/12/12 11:01:38;;;;;;;103.97;40.85;;;7.50;99.90;;;;;;5012400;28;20354;-78
2021/12/12 11:04:18;;;;;;;86.50;38.33;;;9.20;99.90;;;;;;5031710;28;20056;-77
2021/12/12 11:06:50;;;;;;;80.63;34.13;;;7.90;99.90;;;;;;5010727;28;20048;-78
2021/12/12 11:09:20;;;;;;;88.15;34.53;;;9.30;99.90;;;;;;5025372;28;20073;-78
2021/12/12 11:12:19;;;;;;;74.93;33.63;;;9.70;99.90;;;;;;5031801;28;20045;-79
2021/12/12 11:14:56;;;;;;;55.97;27.35;;;8.10;99.90;;;;;;5013809;28;20057;-77
2021/12/12 11:17:28;;;;;;;68.15;28.45;;;8.10;99.90;;;;;;5033126;28;20049;-78
2021/12/12 11:20:13;;;;;;;54.58;25.73;;;8.10;99.90;;;;;;4999339;28;20499;-77
2021/12/12 11:22:47;;;;;;;74.05;31.67;;;9.30;99.90;;;;;;5014478;28;20053;-76
2021/12/12 11:25:28;;;;;;;49.10;25.50;;;8.30;99.90;;;;;;4996895;28;20125;-76
2021/12/12 11:28:31;;;;;;;47.28;22.75;;;8.30;99.90;;;;;;5015759;28;20391;-77
2021/12/12 11:31:17;;;;;;;48.67;23.05;;;8.40;99.90;;;;;;5004922;28;20506;-78
2021/12/12 11:33:46;;;;;;;45.17;23.05;;;8.40;99.90;;;;;;4985544;28;20071;-78
2021/12/12 11:36:17;;;;;;;49.47;23.15;;;8.50;99.90;;;;;;5018890;28;20052;-78
2021/12/12 11:38:50;;;;;;;55.05;23.92;;;8.60;99.90;;;;;;5039306;28;20114;-77
2021/12/12 11:41:42;;;;;;;48.10;24.25;;;8.70;99.90;;;;;;5039152;28;20158;-77
2021/12/12 11:44:19;;;;;;;51.67;24.70;;;8.60;99.90;;;;;;5009823;28;20053;-78
2021/12/12 11:46:54;;;;;;;43.55;22.35;;;8.70;99.90;;;;;;5026163;28;20032;-76
2021/12/12 11:49:24;;;;;;;59.53;27.92;;;8.70;99.90;;;;;;5032982;28;20045;-75
2021/12/12 11:52:04;;;;;;;61.60;29.90;;;8.70;99.90;;;;;;5033058;28;20033;-75
2021/12/12 11:54:42;;;;;;;72.68;31.85;;;8.70;99.90;;;;;;5016714;28;20521;-74
2021/12/12 11:57:18;;;;;;;69.35;28.70;;;8.80;99.90;;;;;;5011876;28;20493;-78
2021/12/12 12:00:09;;;;;;;68.35;27.15;;;8.70;99.90;;;;;;5017334;28;20048;-76
2021/12/12 12:03:00;;;;;;;54.15;25.30;;;8.80;99.90;;;;;;5015215;28;20041;-76
2021/12/12 12:05:29;;;;;;;66.25;30.33;;;8.70;99.90;;;;;;5020533;28;20091;-76
2021/12/12 12:08:09;;;;;;;40.25;20.85;;;8.80;99.90;;;;;;5034077;28;20048;-79
2021/12/12 12:10:40;;;;;;;48.60;23.45;;;8.70;99.90;;;;;;5034911;28;20056;-79
2021/12/12 12:13:32;;;;;;;58.15;27.48;;;8.80;99.90;;;;;;5033061;28;20403;-83
2021/12/12 12:16:04;;;;;;;34.45;20.40;;;8.80;99.90;;;;;;5023027;28;20040;-86
2021/12/12 12:19:02;;;;;;;49.95;26.02;;;8.80;99.90;;;;;;5054931;28;20079;-81
2021/12/12 12:22:08;;;;;;;78.10;29.58;;;8.80;99.90;;;;;;5003108;28;20120;-82
2021/12/12 12:24:44;;;;;;;258.33;61.63;;;8.90;99.90;;;;;;5014584;28;20053;-81
2021/12/12 12:27:14;;;;;;;410.10;86.60;;;8.80;99.90;;;;;;5014896;28;20398;-84
2021/12/12 12:30:03;;;;;;;309.30;65.78;;;8.80;99.90;;;;;;5005915;28;20044;-86
2021/12/12 12:32:53;;;;;;;71.32;28.67;;;8.90;99.90;;;;;;5018223;28;20041;-81
2021/12/12 12:35:57;;;;;;;1612.70;323.77;;;8.90;99.90;;;;;;5033045;28;20040;-73
2021/12/12 12:39:00;;;;;;;298.10;63.95;;;8.90;99.90;;;;;;5034650;28;20424;-88
2021/12/12 12:41:54;;;;;;;346.23;83.63;;;9.00;99.90;;;;;;5016614;28;20501;-84
2021/12/12 12:45:04;;;;;;;410.67;94.25;;;9.00;99.90;;;;;;5018061;28;20056;-81
2021/12/12 12:48:07;;;;;;;1563.80;324.40;;;9.10;99.90;;;;;;5034417;28;20517;-85
2021/12/12 12:50:57;;;;;;;142.40;41.15;;;9.10;99.90;;;;;;5034545;28;20052;-80
2021/12/12 12:53:28;;;;;;;824.40;164.75;;;9.10;99.90;;;;;;5017384;28;20049;-90
2021/12/12 12:56:10;;;;;;;204.77;54.38;;;9.00;99.90;;;;;;5017645;28;20366;-83
2021/12/12 12:58:38;;;;;;;787.75;162.90;;;9.10;99.90;;;;;;5016909;28;20041;-84
2021/12/12 13:01:16;;;;;;;646.85;141.23;;;9.10;99.90;;;;;;5033828;28;20095;-83
2021/12/12 13:04:12;;;;;;;586.25;123.15;;;9.10;99.90;;;;;;5020990;28;20045;-85
2021/12/12 13:06:55;;;;;;;54.35;27.63;;;9.10;99.90;;;;;;4998322;28;20048;-81
2021/12/12 13:09:39;;;;;;;73.55;30.98;;;11.20;99.90;;;;;;5014382;28;20046;-83
2021/12/12 13:12:23;;;;;;;76.40;32.38;;;9.10;99.90;;;;;;4997580;28;20580;-84
2021/12/12 13:15:00;;;;;;;64.57;30.00;;;9.10;99.90;;;;;;4997965;28;20079;-81
2021/12/12 13:17:56;;;;;;;77.75;32.83;;;9.00;99.90;;;;;;5004671;28;20077;-81
2021/12/12 13:20:34;;;;;;;73.30;31.75;;;9.00;99.90;;;;;;5029134;28;20049;-81
2021/12/12 13:23:21;;;;;;;43.13;21.80;;;9.00;99.90;;;;;;5017496;28;20056;-80
2021/12/12 13:25:54;;;;;;;56.78;24.52;;;9.10;99.90;;;;;;5013190;28;20053;-78
2021/12/12 13:28:32;;;;;;;35.20;18.27;;;9.10;99.90;;;;;;4997727;28;20103;-79
2021/12/12 13:31:19;;;;;;;81.78;31.48;;;9.10;99.90;;;;;;5013141;28;20049;-83
2021/12/12 13:34:17;;;;;;;46.47;20.65;;;9.20;99.90;;;;;;5027193;28;20090;-76
2021/12/12 13:37:04;;;;;;;46.30;19.95;;;9.20;99.90;;;;;;5017519;28;20052;-79